Bay Minette, Alabama
Current Conditions -  °F | °C
As of 7:53 PM on Sunday 25 Jan 2015 (Local Time) from KBFM Reporting Station
Clear Clear  
Wind Chill: 57°   Ceiling: Unl
Heat Index: 57°   Visibility: 10mi
Dew Point: 43°   Wind: 7mph
Humidity: 59%   Direction: 240°WSW
Pressure: 29.87"   Gusts: NA
Location:  30.88°N, 87.77°W
Report Text: KBFM 260153Z AUTO 24006KT 10SM CLR 14/06 A2987 RMK AO2 SLP113 T01390061
Loading
Personal Weather Stations






























Interactive Weather Map New forecast layout! Learn more

10-Day Weather Forecast

Advertisements
Track Severe Weather on mobile